LNG Imo — ZCDT6 — position and weather

sailwx.info

Track history (hours):
 
Tides and Currents Weather Stations Pressure Air Temp Water Temp Dewpoint Dewpoint Depression Visibility Wind Speed Wind Dir Waves Ship Positions

LNG Imo

Last reported at 2016-Sep-09 16:30 UTC. Time now 2016-Sep-25 08:50 UTC.
Position N 27°43' W 013°57'.
Warning: this ship's position is 15 days out of date.

Length 288 m; draft 9.2 m.

Type: Ship (hazmat cat D). MMSI: 310565000.

Date/timePositionNaut miles runAvg speedWind from/ knotsBaromVisibWave heightAir tempDewpointWater temp
2016-Sep-09 16:30N 27°43' W 013°57'10 8.2
2016-Sep-09 15:20N 27°50' W 013°50'7 8.4
2016-Sep-09 14:31N 27°56' W 013°45'9 8.7
2016-Sep-09 13:32N 28°02' W 013°39'9 9.0
2016-Sep-09 12:33N 28°09' W 013°33'9 8.8
2016-Sep-09 11:32N 28°16' W 013°27'8 8.4
2016-Sep-09 10:33N 28°24' W 013°22'9 8.8
2016-Sep-09 09:29N 28°32' W 013°17'9 8.9
2016-Sep-09 08:30N 28°39' W 013°11'9 8.8
2016-Sep-09 07:31N 28°46' W 013°06'8 8.6
2016-Sep-09 06:33N 28°53' W 013°00'9 8.5
2016-Sep-09 05:32N 29°00' W 012°55'9 8.5
2016-Sep-09 04:32N 29°07' W 012°49'9 8.6
2016-Sep-09 03:32N 29°14' W 012°43'9 8.8
2016-Sep-09 02:31N 29°21' W 012°37'8 8.8
2016-Sep-09 01:33N 29°28' W 012°32'9 8.8
2016-Sep-09 00:32N 29°36' W 012°26'9 8.8
2016-Sep-08 23:30N 29°44' W 012°21'8 8.6
2016-Sep-08 22:31N 29°51' W 012°16'8 8.7
2016-Sep-08 21:33N 29°58' W 012°11'9 8.8
2016-Sep-08 20:33N 30°05' W 012°05'9 8.6
2016-Sep-08 19:29N 30°13' W 011°59'8 8.5
2016-Sep-08 18:33N 30°19' W 011°54'9 8.4
2016-Sep-08 17:28N 30°27' W 011°48'8 8.2
2016-Sep-08 16:29N 30°34' W 011°42'8 8.5
2016-Sep-08 15:32N 30°40' W 011°37'8 8.5
2016-Sep-08 14:33N 30°47' W 011°32'10 8.4
2016-Sep-08 13:21N 30°55' W 011°25'7 8.2
2016-Sep-08 12:30N 31°01' W 011°21'9 8.0
2016-Sep-08 11:23N 31°09' W 011°15'15 7.4
2016-Sep-08 09:22N 31°21' W 011°06'7 8.1
2016-Sep-08 08:28N 31°27' W 011°01'56 8.1
2016-Sep-08 01:32N 32°12' W 010°21'20 8.2
2016-Sep-07 23:08N 32°27' W 010°06'5 8.1
2016-Sep-07 22:28N 32°31' W 010°02'40 8.2
2016-Sep-07 17:33N 33°01' W 009°29'8 8.5
2016-Sep-07 16:33N 33°07' W 009°22'9 8.6
2016-Sep-07 15:33N 33°13' W 009°15'9 8.7
2016-Sep-07 14:33N 33°20' W 009°08'9 8.8
2016-Sep-07 13:33N 33°26' W 009°01'8 8.4
2016-Sep-07 12:33N 33°33' W 008°55'8 8.2
2016-Sep-07 11:32N 33°39' W 008°48'8 8.2
2016-Sep-07 10:32N 33°46' W 008°42'8 8.2
2016-Sep-07 09:33N 33°52' W 008°35'8 8.1
2016-Sep-07 08:33N 33°57' W 008°29'8 8.1
2016-Sep-07 07:33N 34°03' W 008°22'8 7.9
2016-Sep-07 06:32N 34°09' W 008°16'16 7.9
2016-Sep-07 04:33N 34°21' W 008°03'8 7.6
2016-Sep-07 03:33N 34°27' W 007°57'37 8.1
2016-Sep-06 23:04N 34°54' W 007°27'4 7.9
2016-Sep-06 22:33N 34°57' W 007°24'8 8.0
2016-Sep-06 21:33N 35°03' W 007°17'49 8.1
2016-Sep-06 15:33N 35°39' W 006°38'20 8.5
2016-Sep-06 13:14N 35°55' W 006°23'5 7.9
2016-Sep-06 12:33N 35°58' W 006°17'11 7.5
2016-Sep-06 11:06N 35°57' W 006°04'23 6.1
2016-Sep-06 07:22N 35°58' W 005°36'4 5.1
2016-Sep-06 06:33N 35°59' W 005°31'12 5.8
2016-Sep-06 04:33N 36°09' W 005°24'0 0.1
2016-Sep-06 03:27N 36°09' W 005°25'0 0.1
2016-Sep-06 02:33N 36°09' W 005°25'0 0.2
2016-Sep-06 01:33N 36°09' W 005°25'0 0.2
2016-Sep-06 00:33N 36°10' W 005°25'0 0.1
2016-Sep-05 23:33N 36°09' W 005°24'0 0.2
2016-Sep-05 22:30N 36°09' W 005°24'0 0.0
2016-Sep-05 21:33N 36°09' W 005°24'0 0.0
2016-Sep-05 20:33N 36°09' W 005°24'0 0.1
2016-Sep-05 19:33N 36°09' W 005°25'0 0.0
2016-Sep-05 18:30N 36°09' W 005°25'0 0.0
2016-Sep-05 17:27N 36°09' W 005°24'0 0.3
2016-Sep-05 16:33N 36°10' W 005°25'0 0.1
2016-Sep-05 15:33N 36°09' W 005°25'0 0.1
2016-Sep-05 14:33N 36°10' W 005°25'0 0.0
2016-Sep-05 13:33N 36°10' W 005°25'0 0.0
2016-Sep-05 12:33N 36°10' W 005°25'0 0.1
2016-Sep-05 11:33N 36°09' W 005°25'0 0.1
2016-Sep-05 10:33N 36°09' W 005°25'0 0.2
2016-Sep-05 09:32N 36°09' W 005°24'2 1.5
2016-Sep-05 08:27N 36°08' W 005°23'2 2.8
2016-Sep-05 07:33N 36°06' W 005°23'3 2.7
2016-Sep-05 06:33N 36°05' W 005°20'2311.2
2016-Sep-05 04:32N 36°07' W 004°52'1414.9
2016-Sep-05 03:33N 36°09' W 004°34'5713.9
2016-Sep-04 23:28N 36°16' W 003°24'1313.6
2016-Sep-04 22:32N 36°19' W 003°09'1313.6
2016-Sep-04 21:33N 36°21' W 002°53'1313.1
2016-Sep-04 20:33N 36°23' W 002°36'1313.0
2016-Sep-04 19:33N 36°24' W 002°20'1313.3
2016-Sep-04 18:33N 36°27' W 002°04'1413.5
2016-Sep-04 17:33N 36°30' W 001°48'1313.5
2016-Sep-04 16:33N 36°32' W 001°31'1413.5
2016-Sep-04 15:31N 36°35' W 001°14'1513.8
2016-Sep-04 14:26N 36°38' W 000°56'1314.7
2016-Sep-04 13:33N 36°41' W 000°40'1515.3
2016-Sep-04 12:33N 36°44' W 000°21'1515.5
2016-Sep-04 11:34N 36°46' W 000°02'1615.6
2016-Sep-04 10:33N 36°50' E 000°17'1615.5
2016-Sep-04 09:33N 36°52' E 000°36'1515.1
2016-Sep-04 08:33N 36°55' E 000°54'1514.9
2016-Sep-04 07:33N 36°59' E 001°13'1815.0
2016-Sep-04 06:22N 37°01' E 001°35'2715.0
2016-Sep-04 04:33N 37°07' E 002°08'1515.0
2016-Sep-04 03:33N 37°09' E 002°27'1514.8
2016-Sep-04 02:33N 37°12' E 002°45'1514.8
2016-Sep-04 01:33N 37°16' E 003°03'1514.7
2016-Sep-04 00:34N 37°19' E 003°21'1514.8
2016-Sep-03 23:33N 37°22' E 003°39'1514.8
2016-Sep-03 22:33N 37°25' E 003°57'1514.5
2016-Sep-03 21:33N 37°26' E 004°16'4815.2
2016-Sep-03 18:22N 37°29' E 005°16'1315.4
2016-Sep-03 17:33N 37°30' E 005°32'14914.8
2016-Sep-03 07:30N 37°39' E 008°40'20613.8
2016-Sep-02 16:33N 36°50' E 012°51'1313.5
2016-Sep-02 15:33N 36°46' E 013°07'4713.8
2016-Sep-02 12:11N 36°32' E 014°02'914.5
2016-Sep-02 11:33N 36°29' E 014°13'1414.2
2016-Sep-02 10:33N 36°25' E 014°30'1414.2
2016-Sep-02 09:33N 36°22' E 014°48'41114.1
2016-Sep-01 04:28N 36°10' E 023°17'1514.8
2016-Sep-01 03:26N 36°20' E 023°30'5714.6
2016-Aug-31 23:33N 37°08' E 024°08'1414.5
2016-Aug-31 22:34N 37°22' E 024°13'1714.7
2016-Aug-31 21:25N 37°35' E 024°27'1214.2
2016-Aug-31 20:33N 37°46' E 024°33'1514.9
2016-Aug-31 19:33N 38°00' E 024°38'2115.4
2016-Aug-31 18:11N 38°21' E 024°45'1614.3
2016-Aug-31 17:04N 38°36' E 024°52'  
Track history (hours):
 
Tides and Currents Weather Stations Pressure Air Temp Water Temp Dewpoint Dewpoint Depression Visibility Wind Speed Wind Dir Waves Ship Positions

LNG Imo

Last reported at 2016-Sep-09 16:30 UTC. Time now 2016-Sep-25 08:50 UTC.
Position N 27°43' W 013°57'.
Warning: this ship's position is 15 days out of date.

Length 288 m; draft 9.2 m.

Type: Ship (hazmat cat D). MMSI: 310565000.

Date/timePositionNaut miles runAvg speedWind from/ knotsBaromVisibWave heightAir tempDewpointWater temp
2016-Sep-09 16:30N 27°43' W 013°57'10 8.2
2016-Sep-09 15:20N 27°50' W 013°50'7 8.4
2016-Sep-09 14:31N 27°56' W 013°45'9 8.7
2016-Sep-09 13:32N 28°02' W 013°39'9 9.0
2016-Sep-09 12:33N 28°09' W 013°33'9 8.8
2016-Sep-09 11:32N 28°16' W 013°27'8 8.4
2016-Sep-09 10:33N 28°24' W 013°22'9 8.8
2016-Sep-09 09:29N 28°32' W 013°17'9 8.9
2016-Sep-09 08:30N 28°39' W 013°11'9 8.8
2016-Sep-09 07:31N 28°46' W 013°06'8 8.6
2016-Sep-09 06:33N 28°53' W 013°00'9 8.5
2016-Sep-09 05:32N 29°00' W 012°55'9 8.5
2016-Sep-09 04:32N 29°07' W 012°49'9 8.6
2016-Sep-09 03:32N 29°14' W 012°43'9 8.8
2016-Sep-09 02:31N 29°21' W 012°37'8 8.8
2016-Sep-09 01:33N 29°28' W 012°32'9 8.8
2016-Sep-09 00:32N 29°36' W 012°26'9 8.8
2016-Sep-08 23:30N 29°44' W 012°21'8 8.6
2016-Sep-08 22:31N 29°51' W 012°16'8 8.7
2016-Sep-08 21:33N 29°58' W 012°11'9 8.8
2016-Sep-08 20:33N 30°05' W 012°05'9 8.6
2016-Sep-08 19:29N 30°13' W 011°59'8 8.5
2016-Sep-08 18:33N 30°19' W 011°54'9 8.4
2016-Sep-08 17:28N 30°27' W 011°48'8 8.2
2016-Sep-08 16:29N 30°34' W 011°42'8 8.5
2016-Sep-08 15:32N 30°40' W 011°37'8 8.5
2016-Sep-08 14:33N 30°47' W 011°32'10 8.4
2016-Sep-08 13:21N 30°55' W 011°25'7 8.2
2016-Sep-08 12:30N 31°01' W 011°21'9 8.0
2016-Sep-08 11:23N 31°09' W 011°15'15 7.4
2016-Sep-08 09:22N 31°21' W 011°06'7 8.1
2016-Sep-08 08:28N 31°27' W 011°01'56 8.1
2016-Sep-08 01:32N 32°12' W 010°21'20 8.2
2016-Sep-07 23:08N 32°27' W 010°06'5 8.1
2016-Sep-07 22:28N 32°31' W 010°02'40 8.2
2016-Sep-07 17:33N 33°01' W 009°29'8 8.5
2016-Sep-07 16:33N 33°07' W 009°22'9 8.6
2016-Sep-07 15:33N 33°13' W 009°15'9 8.7
2016-Sep-07 14:33N 33°20' W 009°08'9 8.8
2016-Sep-07 13:33N 33°26' W 009°01'8 8.4
2016-Sep-07 12:33N 33°33' W 008°55'8 8.2
2016-Sep-07 11:32N 33°39' W 008°48'8 8.2
2016-Sep-07 10:32N 33°46' W 008°42'8 8.2
2016-Sep-07 09:33N 33°52' W 008°35'8 8.1
2016-Sep-07 08:33N 33°57' W 008°29'8 8.1
2016-Sep-07 07:33N 34°03' W 008°22'8 7.9
2016-Sep-07 06:32N 34°09' W 008°16'16 7.9
2016-Sep-07 04:33N 34°21' W 008°03'8 7.6
2016-Sep-07 03:33N 34°27' W 007°57'37 8.1
2016-Sep-06 23:04N 34°54' W 007°27'4 7.9
2016-Sep-06 22:33N 34°57' W 007°24'8 8.0
2016-Sep-06 21:33N 35°03' W 007°17'49 8.1
2016-Sep-06 15:33N 35°39' W 006°38'20 8.5
2016-Sep-06 13:14N 35°55' W 006°23'5 7.9
2016-Sep-06 12:33N 35°58' W 006°17'11 7.5
2016-Sep-06 11:06N 35°57' W 006°04'23 6.1
2016-Sep-06 07:22N 35°58' W 005°36'4 5.1
2016-Sep-06 06:33N 35°59' W 005°31'12 5.8
2016-Sep-06 04:33N 36°09' W 005°24'0 0.1
2016-Sep-06 03:27N 36°09' W 005°25'0 0.1
2016-Sep-06 02:33N 36°09' W 005°25'0 0.2
2016-Sep-06 01:33N 36°09' W 005°25'0 0.2
2016-Sep-06 00:33N 36°10' W 005°25'0 0.1
2016-Sep-05 23:33N 36°09' W 005°24'0 0.2
2016-Sep-05 22:30N 36°09' W 005°24'0 0.0
2016-Sep-05 21:33N 36°09' W 005°24'0 0.0
2016-Sep-05 20:33N 36°09' W 005°24'0 0.1
2016-Sep-05 19:33N 36°09' W 005°25'0 0.0
2016-Sep-05 18:30N 36°09' W 005°25'0 0.0
2016-Sep-05 17:27N 36°09' W 005°24'0 0.3
2016-Sep-05 16:33N 36°10' W 005°25'0 0.1
2016-Sep-05 15:33N 36°09' W 005°25'0 0.1
2016-Sep-05 14:33N 36°10' W 005°25'0 0.0
2016-Sep-05 13:33N 36°10' W 005°25'0 0.0
2016-Sep-05 12:33N 36°10' W 005°25'0 0.1
2016-Sep-05 11:33N 36°09' W 005°25'0 0.1
2016-Sep-05 10:33N 36°09' W 005°25'0 0.2
2016-Sep-05 09:32N 36°09' W 005°24'2 1.5
2016-Sep-05 08:27N 36°08' W 005°23'2 2.8
2016-Sep-05 07:33N 36°06' W 005°23'3 2.7
2016-Sep-05 06:33N 36°05' W 005°20'2311.2
2016-Sep-05 04:32N 36°07' W 004°52'1414.9
2016-Sep-05 03:33N 36°09' W 004°34'5713.9
2016-Sep-04 23:28N 36°16' W 003°24'1313.6
2016-Sep-04 22:32N 36°19' W 003°09'1313.6
2016-Sep-04 21:33N 36°21' W 002°53'1313.1
2016-Sep-04 20:33N 36°23' W 002°36'1313.0
2016-Sep-04 19:33N 36°24' W 002°20'1313.3
2016-Sep-04 18:33N 36°27' W 002°04'1413.5
2016-Sep-04 17:33N 36°30' W 001°48'1313.5
2016-Sep-04 16:33N 36°32' W 001°31'1413.5
2016-Sep-04 15:31N 36°35' W 001°14'1513.8
2016-Sep-04 14:26N 36°38' W 000°56'1314.7
2016-Sep-04 13:33N 36°41' W 000°40'1515.3
2016-Sep-04 12:33N 36°44' W 000°21'1515.5
2016-Sep-04 11:34N 36°46' W 000°02'1615.6
2016-Sep-04 10:33N 36°50' E 000°17'1615.5
2016-Sep-04 09:33N 36°52' E 000°36'1515.1
2016-Sep-04 08:33N 36°55' E 000°54'1514.9
2016-Sep-04 07:33N 36°59' E 001°13'1815.0
2016-Sep-04 06:22N 37°01' E 001°35'2715.0
2016-Sep-04 04:33N 37°07' E 002°08'1515.0
2016-Sep-04 03:33N 37°09' E 002°27'1514.8
2016-Sep-04 02:33N 37°12' E 002°45'1514.8
2016-Sep-04 01:33N 37°16' E 003°03'1514.7
2016-Sep-04 00:34N 37°19' E 003°21'1514.8
2016-Sep-03 23:33N 37°22' E 003°39'1514.8
2016-Sep-03 22:33N 37°25' E 003°57'1514.5
2016-Sep-03 21:33N 37°26' E 004°16'4815.2
2016-Sep-03 18:22N 37°29' E 005°16'1315.4
2016-Sep-03 17:33N 37°30' E 005°32'14914.8
2016-Sep-03 07:30N 37°39' E 008°40'20613.8
2016-Sep-02 16:33N 36°50' E 012°51'1313.5
2016-Sep-02 15:33N 36°46' E 013°07'4713.8
2016-Sep-02 12:11N 36°32' E 014°02'914.5
2016-Sep-02 11:33N 36°29' E 014°13'1414.2
2016-Sep-02 10:33N 36°25' E 014°30'1414.2
2016-Sep-02 09:33N 36°22' E 014°48'41114.1
2016-Sep-01 04:28N 36°10' E 023°17'1514.8
2016-Sep-01 03:26N 36°20' E 023°30'5714.6
2016-Aug-31 23:33N 37°08' E 024°08'1414.5
2016-Aug-31 22:34N 37°22' E 024°13'1714.7
2016-Aug-31 21:25N 37°35' E 024°27'1214.2
2016-Aug-31 20:33N 37°46' E 024°33'1514.9
2016-Aug-31 19:33N 38°00' E 024°38'2115.4
2016-Aug-31 18:11N 38°21' E 024°45'1614.3
2016-Aug-31 17:04N 38°36' E 024°52'  

Dump ship's entire track history